createdAt,value
2023-02-26T00:01:29.798Z,48.46
2023-02-26T00:04:01.998Z,48.64
2023-02-26T00:06:30.051Z,48.79
2023-02-26T00:08:58.152Z,48.94
2023-02-26T00:11:27.944Z,49.15
2023-02-26T00:13:56.416Z,49.30
2023-02-26T00:16:28.246Z,49.47
2023-02-26T00:18:56.595Z,49.45
2023-02-26T00:21:25.101Z,49.52
2023-02-26T00:23:53.065Z,49.48
2023-02-26T00:26:21.012Z,49.71
2023-02-26T00:28:51.148Z,49.63
2023-02-26T00:31:21.079Z,49.59
2023-02-26T00:33:49.508Z,49.60
2023-02-26T00:36:22.499Z,49.76
2023-02-26T00:38:57.095Z,49.56
2023-02-26T00:41:25.723Z,49.72
2023-02-26T00:43:55.590Z,49.61
2023-02-26T00:46:26.607Z,49.76
2023-02-26T00:48:57.300Z,49.72
2023-02-26T00:51:29.231Z,49.63
2023-02-26T00:54:00.721Z,49.74
2023-02-26T00:56:28.600Z,49.77
2023-02-26T00:58:57.921Z,49.79
2023-02-26T01:01:25.797Z,49.69
2023-02-26T01:03:54.311Z,49.83
2023-02-26T01:06:22.721Z,49.78
2023-02-26T01:08:54.554Z,49.81
2023-02-26T01:11:22.820Z,49.98
2023-02-26T01:13:51.128Z,49.85
2023-02-26T01:16:22.370Z,49.93
2023-02-26T01:18:53.099Z,49.94
2023-02-26T01:21:23.439Z,50.07
2023-02-26T01:23:52.470Z,50.15
2023-02-26T01:26:22.542Z,50.12
2023-02-26T01:28:50.986Z,50.14
2023-02-26T01:31:28.129Z,50.08
2023-02-26T01:33:57.625Z,50.18
2023-02-26T01:36:26.552Z,50.24
2023-02-26T01:38:59.054Z,50.11
2023-02-26T01:41:31.743Z,50.29
2023-02-26T01:44:06.745Z,50.08
2023-02-26T01:46:38.217Z,50.24
2023-02-26T01:49:06.356Z,50.27
2023-02-26T01:51:50.682Z,50.24
2023-02-26T01:54:20.739Z,50.29
2023-02-26T01:56:51.315Z,50.24
2023-02-26T01:59:24.278Z,50.36
2023-02-26T02:01:54.434Z,50.45
2023-02-26T02:04:22.263Z,50.52
2023-02-26T02:06:50.095Z,50.50
2023-02-26T02:09:18.027Z,50.65
2023-02-26T02:12:09.594Z,50.67
2023-02-26T02:14:45.840Z,50.67
2023-02-26T02:17:17.636Z,50.67
2023-02-26T02:20:11.785Z,50.65
2023-02-26T02:22:52.872Z,50.68
2023-02-26T02:25:44.309Z,50.73
2023-02-26T02:28:16.883Z,50.82
2023-02-26T02:30:58.952Z,50.76
2023-02-26T02:33:29.863Z,50.63
2023-02-26T02:35:59.055Z,50.81
2023-02-26T02:38:29.100Z,50.79
2023-02-26T02:41:02.390Z,50.94
2023-02-26T02:43:32.370Z,50.93
2023-02-26T02:46:03.318Z,50.88
2023-02-26T02:48:33.230Z,50.97
2023-02-26T02:51:02.523Z,51.08
2023-02-26T02:53:34.115Z,51.03
2023-02-26T02:56:05.744Z,51.09
2023-02-26T02:58:35.892Z,51.14
2023-02-26T03:01:08.034Z,51.14
2023-02-26T03:03:38.108Z,51.29
2023-02-26T03:06:06.320Z,51.25
2023-02-26T03:08:36.382Z,51.30
2023-02-26T03:11:04.262Z,51.20
2023-02-26T03:13:32.216Z,51.48
2023-02-26T03:16:08.391Z,51.48
2023-02-26T03:18:43.047Z,51.39
2023-02-26T03:21:14.683Z,51.33
2023-02-26T03:23:46.363Z,51.38
2023-02-26T03:26:16.366Z,51.48
2023-02-26T03:28:46.569Z,51.66
2023-02-26T03:31:18.161Z,51.60
2023-02-26T03:33:51.539Z,51.48
2023-02-26T03:36:20.591Z,51.50
2023-02-26T03:38:51.284Z,51.61
2023-02-26T03:41:22.622Z,51.52
2023-02-26T03:43:52.240Z,51.58
2023-02-26T03:46:26.238Z,51.66
2023-02-26T03:48:54.405Z,51.67
2023-02-26T03:51:22.273Z,51.49
2023-02-26T03:53:51.886Z,51.72
2023-02-26T03:56:21.618Z,51.77
2023-02-26T03:58:49.503Z,51.54
2023-02-26T04:01:19.270Z,51.65
2023-02-26T04:03:50.774Z,51.62
2023-02-26T04:06:20.398Z,51.72
2023-02-26T04:08:48.337Z,51.68
2023-02-26T04:11:17.752Z,51.72
2023-02-26T04:13:45.646Z,51.81
2023-02-26T04:16:13.559Z,51.69
2023-02-26T04:18:42.543Z,51.66
2023-02-26T04:21:13.833Z,51.74
2023-02-26T04:23:41.691Z,51.84
2023-02-26T04:26:09.531Z,51.72
2023-02-26T04:28:37.985Z,51.84
2023-02-26T04:31:06.171Z,51.83
2023-02-26T04:33:34.289Z,51.83
2023-02-26T04:36:02.887Z,51.83
2023-02-26T04:38:32.111Z,51.91
2023-02-26T04:40:59.979Z,52.08
2023-02-26T04:43:27.886Z,51.88
2023-02-26T04:45:55.817Z,52.02
2023-02-26T04:48:23.687Z,52.03
2023-02-26T04:50:51.654Z,51.90
2023-02-26T04:53:19.489Z,52.01
2023-02-26T04:55:51.381Z,52.14
2023-02-26T04:58:20.191Z,51.97
2023-02-26T05:00:49.763Z,52.07
2023-02-26T05:03:17.645Z,52.07
2023-02-26T05:05:45.597Z,52.07
2023-02-26T05:08:13.473Z,52.01
2023-02-26T05:10:41.407Z,52.24
2023-02-26T05:13:10.690Z,52.29
2023-02-26T05:15:38.572Z,51.93
2023-02-26T05:18:06.552Z,51.89
2023-02-26T05:20:34.449Z,52.18
2023-02-26T05:23:02.300Z,52.41
2023-02-26T05:25:30.270Z,52.30
2023-02-26T05:27:58.184Z,52.55
2023-02-26T05:30:27.445Z,52.55
2023-02-26T05:32:55.704Z,52.58
2023-02-26T05:35:23.616Z,52.51
2023-02-26T05:37:51.507Z,52.73
2023-02-26T05:40:19.540Z,52.68
2023-02-26T05:42:47.404Z,52.63
2023-02-26T05:45:15.337Z,52.85
2023-02-26T05:47:44.567Z,52.75
2023-02-26T05:50:13.330Z,52.89
2023-02-26T05:52:41.209Z,52.77
2023-02-26T05:55:10.546Z,53.00
2023-02-26T05:57:38.436Z,53.20
2023-02-26T06:00:07.456Z,53.07
2023-02-26T06:02:35.314Z,53.26
2023-02-26T06:05:05.048Z,53.20
2023-02-26T06:07:33.005Z,53.22
2023-02-26T06:10:00.881Z,53.32
2023-02-26T06:12:28.750Z,53.29
2023-02-26T06:14:56.588Z,53.19
2023-02-26T06:17:24.462Z,53.21
2023-02-26T06:19:52.969Z,53.38
2023-02-26T06:22:22.199Z,53.23
2023-02-26T06:24:50.076Z,53.39
2023-02-26T06:27:17.933Z,53.30
2023-02-26T06:29:45.806Z,53.28
2023-02-26T06:32:13.805Z,53.40
2023-02-26T06:34:41.847Z,53.49
2023-02-26T06:37:09.702Z,53.32
2023-02-26T06:39:38.931Z,53.42
2023-02-26T06:42:06.900Z,53.38
2023-02-26T06:44:34.860Z,53.31
2023-02-26T06:47:02.696Z,53.20
2023-02-26T06:49:30.604Z,53.30
2023-02-26T06:51:58.442Z,53.39
2023-02-26T06:54:26.290Z,53.39
2023-02-26T06:56:57.748Z,53.24
2023-02-26T06:59:25.685Z,53.36
2023-02-26T07:01:53.632Z,53.42
2023-02-26T07:04:21.520Z,53.29
2023-02-26T07:06:49.471Z,53.18
2023-02-26T07:09:19.843Z,53.25
2023-02-26T07:11:48.327Z,53.39
2023-02-26T07:14:17.635Z,53.18
2023-02-26T07:16:45.540Z,53.18
2023-02-26T07:19:13.455Z,53.07
2023-02-26T07:21:41.346Z,53.03
2023-02-26T07:24:09.915Z,53.04
2023-02-26T07:26:37.742Z,53.10
2023-02-26T07:29:05.702Z,52.98
2023-02-26T07:31:35.184Z,53.09
2023-02-26T07:34:03.403Z,53.12
2023-02-26T07:36:31.244Z,53.33
2023-02-26T07:38:59.169Z,53.52
2023-02-26T07:41:27.056Z,53.36
2023-02-26T07:43:55.059Z,53.44
2023-02-26T07:46:22.980Z,53.48
2023-02-26T07:48:52.385Z,53.57
2023-02-26T07:51:20.459Z,53.52
2023-02-26T07:53:48.366Z,53.59
2023-02-26T07:56:16.243Z,53.48
2023-02-26T07:58:44.125Z,53.81
2023-02-26T08:01:12.105Z,53.67
2023-02-26T08:03:39.994Z,53.89
2023-02-26T08:06:10.086Z,53.58
2023-02-26T08:08:38.043Z,53.71
2023-02-26T08:11:06.006Z,53.60
2023-02-26T08:13:33.921Z,53.49
2023-02-26T08:16:01.941Z,53.27
2023-02-26T08:18:29.822Z,53.29
2023-02-26T08:20:57.870Z,53.06
2023-02-26T08:23:27.812Z,53.10
2023-02-26T08:26:01.680Z,52.85
2023-02-26T08:28:29.950Z,52.80
2023-02-26T08:30:57.984Z,52.95
2023-02-26T08:33:26.433Z,52.80
2023-02-26T08:35:55.806Z,52.91
2023-02-26T08:38:23.637Z,52.59
2023-02-26T08:40:53.685Z,52.59
2023-02-26T08:43:21.655Z,52.41
2023-02-26T08:45:49.761Z,52.18
2023-02-26T08:48:17.659Z,52.18
2023-02-26T08:50:45.542Z,51.94
2023-02-26T08:53:13.447Z,51.25
2023-02-26T08:55:41.308Z,50.95
2023-02-26T08:58:10.684Z,50.48
2023-02-26T09:00:38.521Z,49.81
2023-02-26T09:03:06.445Z,49.73
2023-02-26T09:05:34.412Z,49.66
2023-02-26T09:08:02.312Z,48.85
2023-02-26T09:10:30.403Z,49.38
2023-02-26T09:12:58.300Z,49.15
2023-02-26T09:15:27.583Z,48.87
2023-02-26T09:17:55.492Z,48.87
2023-02-26T09:20:23.537Z,48.40
2023-02-26T09:22:51.438Z,48.24
2023-02-26T09:25:19.494Z,48.12
2023-02-26T09:27:47.410Z,48.06
2023-02-26T09:30:15.689Z,47.36
2023-02-26T09:32:44.982Z,47.54
2023-02-26T09:35:12.942Z,47.06
2023-02-26T09:37:41.223Z,46.71
2023-02-26T09:40:12.213Z,46.92
2023-02-26T09:42:49.642Z,46.80
2023-02-26T09:45:23.185Z,46.02
2023-02-26T09:47:52.955Z,45.93
2023-02-26T09:50:23.008Z,45.88
2023-02-26T09:52:56.584Z,46.14
2023-02-26T09:55:28.573Z,46.27
2023-02-26T09:57:58.991Z,45.81
2023-02-26T10:00:31.852Z,45.56
2023-02-26T10:03:04.729Z,45.16
2023-02-26T10:05:35.520Z,44.72
2023-02-26T10:08:05.840Z,44.67
2023-02-26T10:10:36.847Z,44.76
2023-02-26T10:13:04.787Z,44.70
2023-02-26T10:15:35.740Z,45.03
2023-02-26T10:18:07.715Z,45.04
2023-02-26T10:20:39.727Z,45.01
2023-02-26T10:23:18.811Z,43.53
2023-02-26T10:25:48.911Z,43.54
2023-02-26T10:28:32.135Z,43.51
2023-02-26T10:31:03.529Z,43.28
2023-02-26T10:33:37.188Z,43.33
2023-02-26T10:36:09.747Z,43.18
2023-02-26T10:38:37.680Z,42.93
2023-02-26T10:41:08.152Z,43.05
2023-02-26T10:43:38.707Z,43.13
2023-02-26T10:46:20.152Z,42.42
2023-02-26T10:48:56.701Z,42.43
2023-02-26T10:51:26.082Z,42.73
2023-02-26T10:53:55.808Z,43.06
2023-02-26T10:56:25.229Z,43.45
2023-02-26T10:58:54.443Z,43.54
2023-02-26T11:01:23.610Z,43.76
2023-02-26T11:03:56.504Z,44.13
2023-02-26T11:06:25.466Z,44.45
2023-02-26T11:08:54.450Z,44.60
2023-02-26T11:11:40.822Z,46.15
2023-02-26T11:14:09.574Z,44.89
2023-02-26T11:16:37.522Z,44.03
2023-02-26T11:19:06.759Z,42.42
2023-02-26T11:21:38.064Z,40.09
2023-02-26T11:24:07.805Z,39.83
2023-02-26T11:26:37.119Z,40.09
2023-02-26T11:29:05.359Z,40.13
2023-02-26T11:31:33.909Z,40.12
2023-02-26T11:34:04.970Z,38.61
2023-02-26T11:36:37.015Z,36.91
2023-02-26T11:39:06.479Z,35.95
2023-02-26T11:41:37.286Z,34.73
2023-02-26T11:44:06.805Z,32.83
2023-02-26T11:46:35.725Z,33.16
2023-02-26T11:49:03.658Z,33.31
2023-02-26T11:51:31.566Z,33.57
2023-02-26T11:54:01.615Z,32.80
2023-02-26T11:56:34.234Z,32.54
2023-02-26T11:59:03.664Z,32.47
2023-02-26T12:01:31.585Z,32.65
2023-02-26T12:04:00.672Z,32.80
2023-02-26T12:06:28.640Z,33.46
2023-02-26T12:08:56.568Z,35.01
2023-02-26T12:11:49.737Z,34.29
2023-02-26T12:14:48.581Z,33.66
2023-02-26T12:17:27.399Z,32.42
2023-02-26T12:19:58.385Z,32.33
2023-02-26T12:22:37.525Z,31.48
2023-02-26T12:25:18.065Z,32.42
2023-02-26T12:28:06.975Z,32.33
2023-02-26T12:30:45.509Z,33.46
2023-02-26T12:33:19.844Z,34.06
2023-02-26T12:35:53.118Z,35.15
2023-02-26T12:38:22.824Z,35.34
2023-02-26T12:41:23.011Z,34.18
2023-02-26T12:43:52.651Z,32.94
2023-02-26T12:46:37.366Z,32.90
2023-02-26T12:49:30.374Z,33.61
2023-02-26T12:52:12.366Z,34.98
2023-02-26T12:54:47.626Z,36.17
2023-02-26T12:57:35.038Z,36.48
2023-02-26T13:00:25.979Z,35.65
2023-02-26T13:03:25.891Z,34.98
2023-02-26T13:06:03.453Z,34.80
2023-02-26T13:08:33.570Z,34.92
2023-02-26T13:11:09.063Z,35.05
2023-02-26T13:13:55.156Z,34.22
2023-02-26T13:16:32.114Z,34.38
2023-02-26T13:19:03.962Z,33.91
2023-02-26T13:21:33.643Z,34.10
2023-02-26T13:24:05.514Z,34.00
2023-02-26T13:26:33.502Z,33.11
2023-02-26T13:29:03.310Z,32.03
2023-02-26T13:31:34.727Z,32.07
2023-02-26T13:34:05.909Z,32.73
2023-02-26T13:36:35.353Z,32.70
2023-02-26T13:39:28.658Z,32.17
2023-02-26T13:42:00.183Z,31.41
2023-02-26T13:44:33.476Z,31.21
2023-02-26T13:47:18.919Z,31.12
2023-02-26T13:49:53.152Z,32.20
2023-02-26T13:52:25.596Z,32.77
2023-02-26T13:54:53.518Z,32.88
2023-02-26T13:57:44.434Z,33.04
2023-02-26T14:00:26.565Z,32.26
2023-02-26T14:02:59.768Z,31.68
2023-02-26T14:06:02.490Z,32.63
2023-02-26T14:08:51.811Z,31.24
2023-02-26T14:11:46.984Z,29.88
2023-02-26T14:14:20.407Z,30.77
2023-02-26T14:16:51.288Z,31.57
2023-02-26T14:19:24.678Z,33.06
2023-02-26T14:22:00.102Z,32.71
2023-02-26T14:24:36.959Z,33.37
2023-02-26T14:27:23.849Z,33.00
2023-02-26T14:30:05.167Z,33.01
2023-02-26T14:32:37.058Z,32.96
2023-02-26T14:35:10.263Z,31.47
2023-02-26T14:37:38.387Z,30.66
2023-02-26T14:40:08.971Z,31.11
2023-02-26T14:42:38.379Z,31.31
2023-02-26T14:45:14.283Z,30.33
2023-02-26T14:47:42.210Z,29.93
2023-02-26T14:50:12.916Z,29.91
2023-02-26T14:52:50.427Z,29.57
2023-02-26T14:55:27.761Z,28.64
2023-02-26T14:58:04.508Z,28.76
2023-02-26T15:00:37.578Z,28.97
2023-02-26T15:03:24.988Z,29.11
2023-02-26T15:06:11.378Z,29.71
2023-02-26T15:08:51.603Z,28.93
2023-02-26T15:11:31.820Z,29.71
2023-02-26T15:14:24.276Z,29.90
2023-02-26T15:16:57.198Z,29.06
2023-02-26T15:19:43.618Z,29.22
2023-02-26T15:22:23.574Z,28.19
2023-02-26T15:24:52.907Z,27.33
2023-02-26T15:27:21.282Z,27.08
2023-02-26T15:29:50.450Z,27.26
2023-02-26T15:32:23.362Z,27.49
2023-02-26T15:34:57.325Z,27.04
2023-02-26T15:37:28.294Z,26.44
2023-02-26T15:39:56.244Z,26.90
2023-02-26T15:42:26.888Z,27.81
2023-02-26T15:45:01.324Z,28.29
2023-02-26T15:47:29.398Z,29.59
2023-02-26T15:49:58.189Z,30.04
2023-02-26T15:52:28.282Z,30.69
2023-02-26T15:54:57.773Z,31.27
2023-02-26T15:57:26.005Z,31.68
2023-02-26T15:59:57.947Z,31.75
2023-02-26T16:02:28.503Z,32.22
2023-02-26T16:04:56.500Z,32.73
2023-02-26T16:07:24.933Z,33.04
2023-02-26T16:09:57.955Z,32.69
2023-02-26T16:12:37.924Z,33.00
2023-02-26T16:15:07.846Z,33.07
2023-02-26T16:17:40.477Z,33.25
2023-02-26T16:20:13.454Z,33.31
2023-02-26T16:22:45.904Z,33.58
2023-02-26T16:25:18.297Z,33.76
2023-02-26T16:27:51.244Z,34.12
2023-02-26T16:30:22.731Z,34.27
2023-02-26T16:32:51.451Z,34.29
2023-02-26T16:35:22.799Z,34.21
2023-02-26T16:37:52.981Z,34.02
2023-02-26T16:40:25.759Z,34.22
2023-02-26T16:43:01.592Z,34.37
2023-02-26T16:45:49.274Z,34.53
2023-02-26T16:48:19.557Z,34.65
2023-02-26T16:50:48.509Z,34.87
2023-02-26T16:53:18.389Z,34.69
2023-02-26T16:55:50.751Z,35.04
2023-02-26T16:58:25.507Z,35.08
2023-02-26T17:00:58.170Z,35.30
2023-02-26T17:03:26.964Z,35.26
2023-02-26T17:05:59.882Z,35.30
2023-02-26T17:08:34.041Z,35.35
2023-02-26T17:11:06.768Z,35.49
2023-02-26T17:13:40.984Z,35.50
2023-02-26T17:16:17.181Z,35.67
2023-02-26T17:18:47.620Z,35.92
2023-02-26T17:21:18.567Z,36.04
2023-02-26T17:23:48.149Z,36.23
2023-02-26T17:26:21.266Z,36.27
2023-02-26T17:28:51.079Z,36.45
2023-02-26T17:31:21.895Z,36.64
2023-02-26T17:33:52.371Z,36.72
2023-02-26T17:36:24.360Z,36.90
2023-02-26T17:38:54.938Z,36.97
2023-02-26T17:41:29.235Z,36.96
2023-02-26T17:43:57.191Z,37.06
2023-02-26T17:46:25.092Z,37.22
2023-02-26T17:48:53.002Z,37.29
2023-02-26T17:51:20.867Z,37.33
2023-02-26T17:53:48.758Z,37.46
2023-02-26T17:56:28.127Z,37.44
2023-02-26T17:58:56.372Z,37.51
2023-02-26T18:01:24.725Z,37.76
2023-02-26T18:03:54.657Z,37.70
2023-02-26T18:06:22.895Z,37.99
2023-02-26T18:08:50.803Z,37.86
2023-02-26T18:11:20.021Z,38.01
2023-02-26T18:13:49.305Z,38.41
2023-02-26T18:16:19.064Z,38.64
2023-02-26T18:18:49.662Z,38.61
2023-02-26T18:21:21.605Z,38.70
2023-02-26T18:23:52.524Z,38.85
2023-02-26T18:26:23.875Z,39.00
2023-02-26T18:28:58.363Z,39.16
2023-02-26T18:31:37.154Z,39.38
2023-02-26T18:34:08.016Z,39.44
2023-02-26T18:36:38.174Z,39.49
2023-02-26T18:39:10.472Z,39.75
2023-02-26T18:41:44.099Z,40.01
2023-02-26T18:44:15.985Z,40.25
2023-02-26T18:46:47.575Z,40.50
2023-02-26T18:49:18.747Z,40.90
2023-02-26T18:51:48.063Z,41.07
2023-02-26T18:54:16.139Z,41.28
2023-02-26T18:56:44.136Z,41.46
2023-02-26T18:59:13.354Z,41.91
2023-02-26T19:01:41.452Z,42.13
2023-02-26T19:04:09.414Z,42.29
2023-02-26T19:06:37.306Z,42.35
2023-02-26T19:09:05.861Z,42.30
2023-02-26T19:11:36.426Z,42.22
2023-02-26T19:14:04.329Z,42.23
2023-02-26T19:16:38.090Z,42.31
2023-02-26T19:19:06.719Z,42.53
2023-02-26T19:21:36.330Z,42.35
2023-02-26T19:24:05.091Z,42.39
2023-02-26T19:26:33.249Z,42.54
2023-02-26T19:29:01.267Z,42.50
2023-02-26T19:31:29.536Z,42.75
2023-02-26T19:33:59.051Z,42.89
2023-02-26T19:36:27.621Z,42.97
2023-02-26T19:38:55.555Z,42.92
2023-02-26T19:41:23.418Z,43.00
2023-02-26T19:43:51.471Z,42.99
2023-02-26T19:46:19.440Z,42.95
2023-02-26T19:48:47.313Z,42.95
2023-02-26T19:51:16.515Z,43.11
2023-02-26T19:53:44.410Z,43.17
2023-02-26T19:56:12.665Z,43.05
2023-02-26T19:58:40.566Z,43.48
2023-02-26T20:01:08.419Z,43.29
2023-02-26T20:03:36.430Z,43.30
2023-02-26T20:06:04.468Z,43.29
2023-02-26T20:08:33.840Z,43.44
2023-02-26T20:11:02.274Z,43.62
2023-02-26T20:13:30.374Z,43.58
2023-02-26T20:15:58.628Z,43.61
2023-02-26T20:18:27.583Z,43.51
2023-02-26T20:20:56.727Z,43.62
2023-02-26T20:23:24.587Z,43.76
2023-02-26T20:25:55.271Z,43.81
2023-02-26T20:28:23.316Z,43.74
2023-02-26T20:30:51.278Z,43.86
2023-02-26T20:33:19.407Z,43.84
2023-02-26T20:35:47.458Z,43.83
2023-02-26T20:38:15.728Z,44.03
2023-02-26T20:40:43.841Z,43.88
2023-02-26T20:43:13.092Z,44.06
2023-02-26T20:45:41.055Z,43.90
2023-02-26T20:48:09.332Z,44.18
2023-02-26T20:50:37.563Z,44.07
2023-02-26T20:53:05.575Z,44.13
2023-02-26T20:55:33.535Z,44.16
2023-02-26T20:58:01.503Z,44.04
2023-02-26T21:00:30.869Z,44.11
2023-02-26T21:02:58.746Z,44.26
2023-02-26T21:05:26.640Z,44.16
2023-02-26T21:07:56.363Z,44.35
2023-02-26T21:10:24.258Z,44.21
2023-02-26T21:12:52.833Z,44.27
2023-02-26T21:15:20.959Z,44.36
2023-02-26T21:17:50.246Z,44.38
2023-02-26T21:20:18.651Z,44.64
2023-02-26T21:22:46.586Z,44.56
2023-02-26T21:25:14.425Z,44.72
2023-02-26T21:27:42.296Z,44.65
2023-02-26T21:30:11.982Z,44.77
2023-02-26T21:32:40.169Z,44.78
2023-02-26T21:35:11.394Z,44.85
2023-02-26T21:37:39.297Z,45.17
2023-02-26T21:40:09.433Z,44.91
2023-02-26T21:42:37.349Z,44.96
2023-02-26T21:45:05.846Z,45.23
2023-02-26T21:47:34.038Z,45.21
2023-02-26T21:50:01.940Z,45.16
2023-02-26T21:52:31.210Z,45.12
2023-02-26T21:54:59.050Z,45.11
2023-02-26T21:57:28.878Z,45.32
2023-02-26T21:59:57.358Z,45.32
2023-02-26T22:02:25.316Z,45.26
2023-02-26T22:04:53.294Z,45.46
2023-02-26T22:07:21.387Z,45.35
2023-02-26T22:09:51.813Z,45.23
2023-02-26T22:12:21.181Z,45.20
2023-02-26T22:14:49.395Z,45.43
2023-02-26T22:17:17.262Z,45.48
2023-02-26T22:19:45.177Z,45.46
2023-02-26T22:22:13.073Z,45.59
2023-02-26T22:24:41.335Z,45.56
2023-02-26T22:27:10.590Z,45.48
2023-02-26T22:29:39.215Z,45.60
2023-02-26T22:32:07.531Z,45.69
2023-02-26T22:34:36.796Z,45.81
2023-02-26T22:37:04.662Z,45.87
2023-02-26T22:39:33.220Z,45.70
2023-02-26T22:42:01.133Z,45.76
2023-02-26T22:44:30.794Z,46.06
2023-02-26T22:46:58.966Z,45.92
2023-02-26T22:49:27.180Z,46.54
2023-02-26T22:51:55.067Z,46.77
2023-02-26T22:54:22.974Z,46.73
2023-02-26T22:56:51.002Z,46.63
2023-02-26T22:59:18.862Z,46.42
2023-02-26T23:01:48.376Z,46.36
2023-02-26T23:04:16.668Z,46.33
2023-02-26T23:06:44.531Z,46.21
2023-02-26T23:09:12.450Z,46.20
2023-02-26T23:11:40.369Z,46.15
2023-02-26T23:14:08.283Z,45.97
2023-02-26T23:16:36.118Z,46.01
2023-02-26T23:19:05.420Z,45.98
2023-02-26T23:21:33.374Z,46.16
2023-02-26T23:24:01.284Z,46.15
2023-02-26T23:26:29.279Z,46.10
2023-02-26T23:28:57.201Z,46.03
2023-02-26T23:31:25.775Z,46.15
2023-02-26T23:33:53.910Z,46.14
2023-02-26T23:36:23.187Z,45.98
2023-02-26T23:38:51.040Z,45.97
2023-02-26T23:41:19.965Z,45.96
2023-02-26T23:43:47.838Z,45.95
2023-02-26T23:46:15.768Z,45.95
2023-02-26T23:48:43.659Z,45.97
2023-02-26T23:51:11.611Z,45.98
2023-02-26T23:53:40.861Z,46.17
2023-02-26T23:56:09.182Z,46.11
2023-02-26T23:58:37.086Z,46.25
